Time;durP1;ratioP1;P1;durP2;ratioP2;P2;SDS_P1;SDS_P2;PMS_P1;PMS_P2;Temp;Humidity;BMP_temperature;BMP_pressure;BME280_temperature;BME280_humidity;BME280_pressure;Samples;Min_cycle;Max_cycle;Signal;HPM_P1;HPM_P2
2023/11/23 00:00:23;;;;;;;7.90;5.00;;;;;;;-3.33;62.28;101283.44;108197;1257;72752;-68
2023/11/23 00:02:51;;;;;;;6.60;4.80;;;;;;;-3.33;61.88;101280.02;108293;1254;62156;-68
2023/11/23 00:05:20;;;;;;;6.70;4.00;;;;;;;-3.35;61.57;101276.48;108141;1251;59955;-67
2023/11/23 00:07:48;;;;;;;6.80;4.60;;;;;;;-3.37;60.98;101263.94;108166;1251;72570;-68
2023/11/23 00:10:16;;;;;;;6.80;4.70;;;;;;;-3.39;61.11;101255.66;108184;1254;72755;-67
2023/11/23 00:12:43;;;;;;;7.40;4.90;;;;;;;-3.42;60.94;101259.14;107978;1252;73561;-67
2023/11/23 00:15:11;;;;;;;7.80;5.10;;;;;;;-3.45;61.00;101256.48;108052;1251;62024;-68
2023/11/23 00:17:39;;;;;;;7.70;5.00;;;;;;;-3.47;60.83;101258.33;108128;1251;60004;-68
2023/11/23 00:20:09;;;;;;;7.10;4.90;;;;;;;-3.46;60.84;101263.68;108219;1251;73891;-67
2023/11/23 00:22:36;;;;;;;7.20;4.70;;;;;;;-3.46;61.09;101258.79;108199;1251;72740;-68
2023/11/23 00:25:05;;;;;;;6.50;4.40;;;;;;;-3.45;61.42;101265.17;108121;1251;72461;-68
2023/11/23 00:27:34;;;;;;;7.50;4.50;;;;;;;-3.46;61.15;101261.21;108189;1257;60403;-69
2023/11/23 00:30:02;;;;;;;7.90;4.90;;;;;;;-3.48;61.21;101259.33;108160;1253;60944;-68
2023/11/23 00:32:30;;;;;;;7.60;4.50;;;;;;;-3.50;61.16;101257.64;108100;1251;76066;-68
2023/11/23 00:34:57;;;;;;;7.30;4.60;;;;;;;-3.51;61.12;101261.91;108135;1255;72744;-68
2023/11/23 00:37:26;;;;;;;7.40;4.70;;;;;;;-3.50;61.12;101258.52;108091;1255;71166;-69
2023/11/23 00:39:59;;;;;;;8.10;4.10;;;;;;;-3.50;61.38;101261.13;108127;1251;60206;-68
2023/11/23 00:42:39;;;;;;;6.00;3.50;;;;;;;-3.54;60.79;101259.00;108192;1257;61850;-68
2023/11/23 00:45:15;;;;;;;6.40;3.70;;;;;;;-3.62;59.95;101251.45;108067;1253;72564;-67
2023/11/23 00:47:43;;;;;;;6.80;4.00;;;;;;;-3.66;59.66;101247.13;108164;1252;73203;-67
2023/11/23 00:50:11;;;;;;;8.50;4.00;;;;;;;-3.69;59.64;101238.02;108049;1253;72448;-67
2023/11/23 00:52:41;;;;;;;9.90;4.20;;;;;;;-3.74;59.80;101231.35;108184;1254;60443;-67
2023/11/23 00:55:23;;;;;;;7.30;4.40;;;;;;;-3.77;59.83;101222.21;108140;1254;62102;-67
2023/11/23 00:58:01;;;;;;;5.70;3.40;;;;;;;-3.79;60.22;101226.45;108136;1251;74402;-67
2023/11/23 01:00:33;;;;;;;;;;;;;;;-3.82;60.38;101227.93;108172;1251;70599;-68
2023/11/23 01:03:02;;;;;;;6.90;4.30;;;;;;;-3.82;60.83;101226.20;108140;1251;71683;-67
2023/11/23 01:05:35;;;;;;;6.80;4.30;;;;;;;-3.82;60.61;101232.62;108072;1253;60325;-67
2023/11/23 01:08:16;;;;;;;6.50;4.20;;;;;;;-3.80;60.68;101234.34;108089;1251;60791;-67
2023/11/23 01:11:05;;;;;;;7.00;4.40;;;;;;;-3.79;60.93;101227.98;108090;1257;74108;-69
2023/11/23 01:13:47;;;;;;;6.20;3.80;;;;;;;-3.78;61.14;101226.02;108165;1251;71682;-67
2023/11/23 01:16:50;;;;;;;7.30;4.40;;;;;;;-3.81;60.32;101220.56;108037;1258;72768;-67
2023/11/23 01:19:40;;;;;;;5.50;3.60;;;;;;;-3.85;60.15;101215.67;108134;1253;60502;-67
2023/11/23 01:22:42;;;;;;;5.60;3.50;;;;;;;-3.90;59.28;101220.52;108050;1258;60731;-67
2023/11/23 01:25:48;;;;;;;6.40;3.00;;;;;;;-3.94;58.67;101216.38;108128;1252;72619;-67
2023/11/23 01:28:44;;;;;;;5.70;3.20;;;;;;;-3.98;58.34;101203.77;108079;1253;74886;-67
2023/11/23 01:32:05;;;;;;;6.00;3.80;;;;;;;-4.02;58.21;101197.31;108168;1258;72771;-66
2023/11/23 01:34:33;;;;;;;6.70;3.40;;;;;;;-4.08;58.12;101189.31;108054;1253;62202;-68
2023/11/23 01:37:01;;;;;;;6.30;3.60;;;;;;;-4.12;58.09;101179.98;108110;1251;60530;-68
2023/11/23 01:39:28;;;;;;;6.00;3.80;;;;;;;-4.14;58.27;101173.42;108146;1251;73833;-68
2023/11/23 01:41:56;;;;;;;7.10;4.10;;;;;;;-4.18;58.31;101174.78;108076;1251;71412;-68
2023/11/23 01:44:24;;;;;;;7.30;3.80;;;;;;;-4.20;58.33;101179.06;108095;1251;71422;-68
2023/11/23 01:46:52;;;;;;;6.50;3.90;;;;;;;-4.23;58.41;101178.05;108094;1251;60465;-68
2023/11/23 01:49:21;;;;;;;7.50;4.10;;;;;;;-4.24;58.47;101178.70;108156;1251;60415;-69
2023/11/23 01:51:49;;;;;;;6.20;3.60;;;;;;;-4.25;58.54;101183.48;108196;1251;74277;-68
2023/11/23 01:54:16;;;;;;;6.40;3.90;;;;;;;-4.27;58.73;101183.91;108184;1251;71534;-68
2023/11/23 01:56:44;;;;;;;6.80;3.70;;;;;;;-4.30;58.96;101183.14;108165;1251;72715;-69
2023/11/23 01:59:12;;;;;;;7.40;3.60;;;;;;;-4.31;59.14;101182.48;107952;1251;60329;-68
2023/11/23 02:01:39;;;;;;;6.70;3.60;;;;;;;-4.33;59.33;101183.20;108211;1251;60332;-68
2023/11/23 02:04:08;;;;;;;7.20;4.20;;;;;;;-4.38;59.32;101172.55;108186;1251;73931;-68
2023/11/23 02:06:36;;;;;;;6.00;3.70;;;;;;;-4.43;59.09;101171.99;108162;1251;72761;-68
2023/11/23 02:09:05;;;;;;;9.70;4.80;;;;;;;-4.45;59.13;101172.73;108152;1251;71357;-67
2023/11/23 02:11:35;;;;;;;9.20;4.60;;;;;;;-4.44;59.19;101173.14;108259;1253;61686;-67
2023/11/23 02:14:03;;;;;;;7.80;4.80;;;;;;;-4.42;59.42;101173.61;108098;1253;60932;-68
2023/11/23 02:16:31;;;;;;;8.90;4.20;;;;;;;-4.42;59.73;101172.54;108209;1251;73838;-68
2023/11/23 02:18:59;;;;;;;7.30;4.30;;;;;;;-4.42;59.86;101164.20;108239;1251;73363;-68
2023/11/23 02:21:26;;;;;;;6.30;3.70;;;;;;;-4.43;59.91;101160.02;108191;1253;71243;-68
2023/11/23 02:23:54;;;;;;;7.40;4.20;;;;;;;-4.44;60.11;101161.66;108065;1253;60956;-68
2023/11/23 02:26:22;;;;;;;6.40;3.60;;;;;;;-4.45;60.19;101156.36;108219;1251;60474;-67
2023/11/23 02:28:50;;;;;;;6.50;3.70;;;;;;;-4.48;60.17;101158.56;108175;1253;73833;-68
2023/11/23 02:31:18;;;;;;;7.00;4.10;;;;;;;-4.51;60.37;101157.77;108246;1253;72533;-68
2023/11/23 02:33:45;;;;;;;7.00;4.20;;;;;;;-4.55;60.28;101148.91;108187;1251;72711;-70
2023/11/23 02:36:13;;;;;;;7.50;4.00;;;;;;;-4.57;60.35;101142.73;108175;1251;59935;-70
2023/11/23 02:38:41;;;;;;;9.30;3.90;;;;;;;-4.60;60.38;101138.84;108336;1251;60409;-68
2023/11/23 02:41:09;;;;;;;6.30;3.80;;;;;;;-4.63;60.41;101142.92;108173;1251;74003;-69
2023/11/23 02:43:37;;;;;;;8.50;4.30;;;;;;;-4.65;60.45;101145.50;108263;1251;71245;-69
2023/11/23 02:46:04;;;;;;;7.40;4.50;;;;;;;-4.66;60.58;101145.12;108182;1251;72872;-69
2023/11/23 02:48:32;;;;;;;6.90;4.20;;;;;;;-4.66;60.64;101145.14;108164;1251;61862;-68
2023/11/23 02:51:00;;;;;;;8.30;4.80;;;;;;;-4.68;60.84;101140.59;108214;1251;60870;-68
2023/11/23 02:53:32;;;;;;;8.70;4.60;;;;;;;-4.68;60.85;101144.64;108164;1251;73139;-70
2023/11/23 02:56:01;;;;;;;10.20;4.70;;;;;;;-4.66;61.14;101142.88;108204;1251;71639;-68
2023/11/23 02:58:28;;;;;;;9.40;4.90;;;;;;;-4.65;61.33;101138.97;108239;1251;72386;-66
2023/11/23 03:00:56;;;;;;;8.70;4.90;;;;;;;-4.63;61.40;101137.75;108198;1251;60229;-67
2023/11/23 03:03:23;;;;;;;8.70;5.00;;;;;;;-4.61;61.25;101138.41;108097;1251;60435;-68
2023/11/23 03:05:51;;;;;;;7.40;4.10;;;;;;;-4.59;61.21;101135.08;108162;1251;73990;-68
2023/11/23 03:08:19;;;;;;;7.10;4.40;;;;;;;-4.56;61.35;101142.58;108171;1251;72513;-67
2023/11/23 03:10:50;;;;;;;7.10;4.20;;;;;;;-4.53;61.40;101135.02;108249;1253;72738;-68
2023/11/23 03:13:18;;;;;;;8.90;4.70;;;;;;;-4.53;61.20;101136.36;108185;1251;60385;-68
2023/11/23 03:15:46;;;;;;;7.30;4.10;;;;;;;-4.52;61.21;101137.81;108177;1251;59191;-67
2023/11/23 03:18:14;;;;;;;7.20;4.50;;;;;;;-4.48;61.41;101134.35;108049;1251;73939;-67
2023/11/23 03:20:42;;;;;;;8.40;4.60;;;;;;;-4.46;61.42;101120.98;108203;1251;72675;-69
2023/11/23 03:23:09;;;;;;;7.50;4.50;;;;;;;-4.44;61.52;101117.55;108132;1253;72653;-68
2023/11/23 03:25:37;;;;;;;7.90;4.80;;;;;;;-4.45;61.42;101117.64;108028;1253;61695;-68
2023/11/23 03:28:07;;;;;;;9.00;5.00;;;;;;;-4.45;61.57;101106.14;108180;1251;60896;-69
2023/11/23 03:30:35;;;;;;;8.10;5.10;;;;;;;-4.44;61.68;101103.39;108172;1251;72568;-68
2023/11/23 03:33:04;;;;;;;7.80;4.40;;;;;;;-4.41;61.67;101102.80;108244;1251;71488;-68
2023/11/23 03:35:31;;;;;;;7.40;4.80;;;;;;;-4.39;61.65;101101.55;108223;1251;71522;-69
2023/11/23 03:37:59;;;;;;;7.70;4.50;;;;;;;-4.36;61.54;101100.95;108192;1251;61146;-68
2023/11/23 03:40:26;;;;;;;8.90;4.90;;;;;;;-4.35;61.60;101096.80;108180;1251;61090;-68
2023/11/23 03:42:54;;;;;;;7.30;4.40;;;;;;;-4.31;61.71;101090.23;108164;1251;73449;-69
2023/11/23 03:45:22;;;;;;;8.20;4.40;;;;;;;-4.31;61.79;101085.79;108218;1251;71588;-70
2023/11/23 03:47:50;;;;;;;8.60;5.00;;;;;;;-4.32;61.62;101068.80;108212;1253;71413;-69
2023/11/23 03:50:18;;;;;;;8.80;5.10;;;;;;;-4.28;61.66;101061.38;108169;1252;61080;-68
2023/11/23 03:52:45;;;;;;;8.70;4.90;;;;;;;-4.27;61.60;101056.17;108025;1252;60280;-68
2023/11/23 03:55:13;;;;;;;7.40;4.60;;;;;;;-4.27;61.61;101043.69;108230;1253;74712;-69
2023/11/23 03:57:41;;;;;;;9.30;4.60;;;;;;;-4.26;61.51;101030.56;108283;1253;71745;-68
2023/11/23 04:00:09;;;;;;;8.20;4.60;;;;;;;-4.26;61.40;101029.35;108152;1251;71047;-68
2023/11/23 04:02:37;;;;;;;8.30;4.90;;;;;;;-4.27;61.28;101021.76;108116;1253;60392;-68
2023/11/23 04:05:06;;;;;;;8.80;5.00;;;;;;;-4.30;61.27;101028.85;108201;1251;59420;-68
2023/11/23 04:07:34;;;;;;;8.10;4.80;;;;;;;-4.32;61.21;101027.10;108201;1251;73455;-68
2023/11/23 04:10:03;;;;;;;8.00;4.60;;;;;;;-4.32;61.41;101027.85;108217;1251;71589;-66
2023/11/23 04:12:31;;;;;;;7.60;4.80;;;;;;;-4.29;61.40;101026.39;108201;1253;71712;-69
2023/11/23 04:14:58;;;;;;;9.60;4.90;;;;;;;-4.28;61.47;101015.64;108187;1251;60641;-69
2023/11/23 04:17:26;;;;;;;8.30;4.60;;;;;;;-4.24;61.52;101013.02;108185;1251;61195;-67
2023/11/23 04:19:56;;;;;;;8.20;4.90;;;;;;;-4.21;61.68;101011.30;108237;1251;74619;-68
2023/11/23 04:22:24;;;;;;;8.90;4.90;;;;;;;-4.20;61.83;101010.73;108199;1251;72488;-68
2023/11/23 04:24:51;;;;;;;9.70;5.10;;;;;;;-4.21;62.01;101003.63;108171;1253;72880;-67
2023/11/23 04:27:19;;;;;;;9.30;5.90;;;;;;;-4.20;62.29;100993.81;108227;1253;60540;-68
2023/11/23 04:29:48;;;;;;;8.90;4.90;;;;;;;-4.19;62.36;100995.84;108191;1253;61347;-69
2023/11/23 04:32:15;;;;;;;8.40;5.20;;;;;;;-4.17;62.61;101001.91;108146;1253;73613;-70
2023/11/23 04:34:43;;;;;;;8.30;5.00;;;;;;;-4.17;62.89;100996.86;108165;1251;71468;-69
2023/11/23 04:37:11;;;;;;;8.90;4.80;;;;;;;-4.17;62.96;100996.12;108249;1251;71424;-70
2023/11/23 04:39:39;;;;;;;11.20;5.50;;;;;;;-4.15;63.23;100984.68;108225;1251;61196;-69
2023/11/23 04:42:07;;;;;;;8.20;4.70;;;;;;;-4.14;63.44;100985.39;108273;1251;61250;-69
2023/11/23 04:44:35;;;;;;;10.60;5.90;;;;;;;-4.15;63.67;100978.16;108226;1252;74669;-69
2023/11/23 04:47:03;;;;;;;8.80;4.90;;;;;;;-4.14;63.76;100976.38;108124;1253;72485;-69
2023/11/23 04:49:32;;;;;;;9.80;5.30;;;;;;;-4.14;63.94;100984.38;108171;1251;71452;-70
2023/11/23 04:52:00;;;;;;;9.20;5.20;;;;;;;-4.13;64.08;100985.34;108219;1251;61101;-69
2023/11/23 04:54:31;;;;;;;8.70;5.20;;;;;;;-4.11;64.19;100982.67;108232;1251;61322;-69
2023/11/23 04:56:59;;;;;;;8.80;5.70;;;;;;;-4.09;64.36;100985.56;108171;1251;74665;-68
2023/11/23 04:59:26;;;;;;;8.50;5.20;;;;;;;-4.07;64.47;100992.39;108185;1251;72882;-68
2023/11/23 05:01:54;;;;;;;8.70;5.60;;;;;;;-4.08;64.49;100985.11;108322;1251;73150;-67
2023/11/23 05:04:22;;;;;;;9.00;5.30;;;;;;;-4.08;64.65;100983.38;108217;1251;61162;-68
2023/11/23 05:06:50;;;;;;;8.70;5.20;;;;;;;-4.09;64.81;100988.03;108243;1251;60267;-69
2023/11/23 05:09:17;;;;;;;10.20;5.70;;;;;;;-4.09;64.94;100992.72;108326;1251;74644;-68
2023/11/23 05:11:45;;;;;;;9.90;5.20;;;;;;;-4.09;64.98;100983.56;108223;1251;72476;-68
2023/11/23 05:14:13;;;;;;;10.10;5.60;;;;;;;-4.08;65.16;100979.81;108135;1256;72652;-68
2023/11/23 05:16:41;;;;;;;9.30;5.60;;;;;;;-4.08;65.28;100967.20;108089;1251;61775;-68
2023/11/23 05:19:09;;;;;;;11.70;6.10;;;;;;;-4.07;65.37;100956.92;108152;1251;61114;-69
2023/11/23 05:21:36;;;;;;;9.60;5.60;;;;;;;-4.05;65.52;100950.95;108177;1251;74588;-71
2023/11/23 05:24:04;;;;;;;9.20;5.40;;;;;;;-4.01;65.68;100937.97;108200;1251;72750;-68
2023/11/23 05:26:32;;;;;;;11.30;5.70;;;;;;;-3.96;65.83;100934.64;108158;1251;71359;-69
2023/11/23 05:29:00;;;;;;;9.40;6.10;;;;;;;-3.97;65.96;100928.28;108175;1251;61733;-68
2023/11/23 05:31:28;;;;;;;10.10;6.20;;;;;;;-3.97;66.10;100927.08;108234;1251;61120;-70
2023/11/23 05:33:55;;;;;;;8.60;5.30;;;;;;;-3.96;66.34;100925.14;108147;1251;74722;-68
2023/11/23 05:36:23;;;;;;;10.50;5.70;;;;;;;-3.96;66.48;100916.14;108160;1257;71587;-67
2023/11/23 05:38:51;;;;;;;9.30;6.00;;;;;;;-3.93;66.66;100908.70;108177;1251;72879;-68
2023/11/23 05:41:18;;;;;;;9.40;6.10;;;;;;;-3.90;66.67;100901.12;108271;1253;61265;-68
2023/11/23 05:43:47;;;;;;;10.10;5.90;;;;;;;-3.86;66.91;100896.22;108223;1251;61154;-70
2023/11/23 05:46:14;;;;;;;11.20;5.70;;;;;;;-3.84;67.14;100895.64;108149;1251;74658;-68
2023/11/23 05:48:42;;;;;;;8.50;5.40;;;;;;;-3.82;67.23;100889.81;108202;1251;71642;-68
2023/11/23 05:51:11;;;;;;;9.10;5.50;;;;;;;-3.79;67.39;100889.91;108121;1251;72555;-68
2023/11/23 05:53:42;;;;;;;9.30;5.00;;;;;;;-3.78;67.23;100889.47;108168;1253;62951;-70
2023/11/23 05:56:10;;;;;;;9.50;5.50;;;;;;;-3.75;67.47;100880.98;108172;1251;61428;-68
2023/11/23 05:58:38;;;;;;;7.80;5.10;;;;;;;-3.71;67.43;100880.21;108177;1251;74632;-68
2023/11/23 06:01:06;;;;;;;8.70;5.40;;;;;;;-3.65;67.62;100880.27;108336;1256;72719;-68
2023/11/23 06:03:40;;;;;;;11.60;6.60;;;;;;;-3.61;67.40;100878.46;108138;1253;71323;-68
2023/11/23 06:06:17;;;;;;;9.50;6.00;;;;;;;-3.57;67.36;100876.68;108151;1251;61726;-69
2023/11/23 06:08:46;;;;;;;10.70;5.80;;;;;;;-3.54;67.22;100870.98;108216;1251;60697;-69
2023/11/23 06:11:14;;;;;;;10.70;5.80;;;;;;;-3.49;67.16;100862.16;108216;1251;72391;-68
2023/11/23 06:13:43;;;;;;;9.30;5.50;;;;;;;-3.45;67.01;100852.13;108236;1251;70926;-69
2023/11/23 06:16:12;;;;;;;8.70;5.00;;;;;;;-3.44;66.80;100853.14;108222;1251;72476;-70
2023/11/23 06:18:41;;;;;;;8.90;5.40;;;;;;;-3.42;66.63;100844.23;108210;1251;61294;-71
2023/11/23 06:21:09;;;;;;;8.90;5.20;;;;;;;-3.38;66.65;100840.48;108410;1251;62812;-69
2023/11/23 06:23:37;;;;;;;7.60;4.90;;;;;;;-3.33;66.65;100833.13;108208;1251;72924;-69
2023/11/23 06:26:05;;;;;;;8.30;5.50;;;;;;;-3.30;66.54;100827.78;108195;1251;72564;-69
2023/11/23 06:28:33;;;;;;;8.90;5.30;;;;;;;-3.27;66.49;100823.96;108218;1253;72752;-70
2023/11/23 06:31:00;;;;;;;7.70;4.80;;;;;;;-3.24;66.40;100820.58;108167;1251;61316;-69
2023/11/23 06:33:28;;;;;;;7.90;5.00;;;;;;;-3.22;66.26;100812.02;108202;1251;61097;-69
2023/11/23 06:35:56;;;;;;;8.10;4.80;;;;;;;-3.21;66.08;100809.84;108271;1251;74624;-69
2023/11/23 06:38:24;;;;;;;8.90;5.80;;;;;;;-3.20;65.97;100802.69;108145;1251;71614;-69
2023/11/23 06:40:52;;;;;;;8.30;5.70;;;;;;;-3.19;65.88;100801.86;108260;1251;72510;-69
2023/11/23 06:43:20;;;;;;;8.40;5.20;;;;;;;-3.16;65.71;100804.69;108184;1251;61102;-68
2023/11/23 06:45:48;;;;;;;7.20;4.50;;;;;;;-3.19;65.43;100810.23;108129;1251;61107;-69
2023/11/23 06:48:15;;;;;;;7.30;4.60;;;;;;;-3.21;65.35;100813.95;108183;1251;75188;-69
2023/11/23 06:50:44;;;;;;;8.30;4.90;;;;;;;-3.18;65.24;100816.11;108140;1251;72809;-68
2023/11/23 06:53:13;;;;;;;7.10;4.90;;;;;;;-3.15;65.30;100811.59;108128;1251;71231;-69
2023/11/23 06:55:40;;;;;;;9.30;5.40;;;;;;;-3.14;65.04;100805.73;108090;1258;61691;-71
2023/11/23 06:58:10;;;;;;;7.30;4.90;;;;;;;-3.13;64.86;100812.75;108157;1251;61161;-70
2023/11/23 07:00:38;;;;;;;8.00;5.00;;;;;;;-3.13;64.85;100810.14;108208;1251;74719;-71
2023/11/23 07:03:06;;;;;;;8.20;5.10;;;;;;;-3.15;64.61;100807.02;108162;1251;72251;-68
2023/11/23 07:05:34;;;;;;;9.50;5.30;;;;;;;-3.12;64.69;100801.20;108208;1251;71756;-69
2023/11/23 07:08:01;;;;;;;7.30;4.60;;;;;;;-3.06;64.74;100787.48;108149;1253;62831;-69
2023/11/23 07:10:29;;;;;;;10.70;5.30;;;;;;;-2.99;64.82;100784.16;108194;1251;61246;-68
2023/11/23 07:12:57;;;;;;;8.60;5.40;;;;;;;-2.95;64.71;100775.97;108277;1251;74789;-69
2023/11/23 07:15:26;;;;;;;8.70;5.00;;;;;;;-2.92;64.54;100767.99;108218;1251;72781;-69
2023/11/23 07:17:56;;;;;;;8.50;5.00;;;;;;;-2.87;64.47;100756.16;108242;1251;72749;-69
2023/11/23 07:20:25;;;;;;;8.60;5.40;;;;;;;-2.81;64.43;100749.33;108220;1253;61154;-69
2023/11/23 07:22:52;;;;;;;8.50;5.10;;;;;;;-2.83;64.18;100749.13;108324;1251;60642;-68
2023/11/23 07:25:20;;;;;;;9.40;5.20;;;;;;;-2.81;64.09;100726.69;108290;1251;73365;-70
2023/11/23 07:27:48;;;;;;;8.50;5.40;;;;;;;-2.80;63.87;100721.59;108270;1251;70602;-68
2023/11/23 07:30:16;;;;;;;7.60;4.90;;;;;;;-2.78;63.88;100712.85;108269;1256;72481;-68
2023/11/23 07:32:44;;;;;;;8.80;5.30;;;;;;;-2.73;63.65;100703.29;108151;1251;61337;-68
2023/11/23 07:35:12;;;;;;;8.40;4.90;;;;;;;-2.68;63.74;100699.93;108253;1251;61083;-69
2023/11/23 07:37:41;;;;;;;7.40;5.30;;;;;;;-2.64;63.66;100688.86;108262;1251;73326;-68
2023/11/23 07:40:12;;;;;;;8.10;5.20;;;;;;;-2.62;63.47;100682.33;108229;1251;72951;-69
2023/11/23 07:42:42;;;;;;;7.40;4.80;;;;;;;-2.57;63.37;100683.11;108317;1253;72888;-69
2023/11/23 07:45:10;;;;;;;8.40;5.50;;;;;;;-2.59;63.00;100680.95;108278;1251;61373;-68
2023/11/23 07:47:41;;;;;;;7.40;4.90;;;;;;;-2.58;62.99;100665.03;108294;1251;61322;-69
2023/11/23 07:50:16;;;;;;;8.80;5.40;;;;;;;-2.55;63.14;100665.26;108278;1253;74631;-69
2023/11/23 07:52:44;;;;;;;8.40;5.40;;;;;;;-2.52;63.06;100655.02;108205;1251;71009;-69
2023/11/23 07:55:18;;;;;;;11.10;5.50;;;;;;;-2.46;63.05;100639.63;108279;1252;72668;-69
2023/11/23 07:57:51;;;;;;;8.50;5.40;;;;;;;-2.40;62.74;100630.77;108285;1251;61787;-69
2023/11/23 08:00:19;;;;;;;8.80;5.60;;;;;;;-2.35;62.68;100633.50;108122;1252;61095;-70
2023/11/23 08:02:47;;;;;;;8.40;5.20;;;;;;;-2.29;62.50;100630.66;108170;1251;74837;-69
2023/11/23 08:05:15;;;;;;;7.90;5.40;;;;;;;-2.21;62.52;100619.64;108213;1257;72612;-68
2023/11/23 08:07:43;;;;;;;7.70;5.30;;;;;;;-2.17;62.17;100601.29;108194;1251;70180;-69
2023/11/23 08:10:15;;;;;;;8.60;5.30;;;;;;;-2.16;61.97;100606.16;108233;1253;61148;-69
2023/11/23 08:12:43;;;;;;;;;;;;;;;-2.17;61.78;100590.89;108516;1251;61149;-68
2023/11/23 08:15:10;;;;;;;8.30;5.10;;;;;;;-2.20;61.55;100584.20;108182;1253;73543;-69
2023/11/23 08:17:38;;;;;;;9.00;5.60;;;;;;;-2.21;61.69;100577.55;108171;1251;73136;-69
2023/11/23 08:20:13;;;;;;;8.00;5.00;;;;;;;-2.20;61.76;100577.10;108108;1251;72942;-69
2023/11/23 08:22:41;;;;;;;10.60;5.90;;;;;;;-2.18;61.49;100576.63;108176;1251;61164;-68
2023/11/23 08:25:09;;;;;;;8.40;5.30;;;;;;;-2.16;61.45;100569.34;108188;1253;61976;-69
2023/11/23 08:27:37;;;;;;;8.20;5.40;;;;;;;-2.13;61.37;100569.27;108152;1253;74633;-69
2023/11/23 08:30:06;;;;;;;8.70;5.90;;;;;;;-2.10;61.30;100570.08;108145;1257;71758;-69
2023/11/23 08:32:34;;;;;;;9.00;5.90;;;;;;;-2.07;61.50;100560.83;108170;1251;73041;-69
2023/11/23 08:35:03;;;;;;;8.60;5.80;;;;;;;-2.02;61.39;100557.66;107949;1256;61814;-69
2023/11/23 08:37:31;;;;;;;8.70;5.50;;;;;;;-1.97;61.18;100552.48;108210;1251;61272;-69
2023/11/23 08:39:59;;;;;;;8.30;5.50;;;;;;;-1.94;61.19;100551.96;108187;1253;73369;-68
2023/11/23 08:42:27;;;;;;;8.10;5.20;;;;;;;-1.88;60.87;100553.23;108238;1251;71596;-70
2023/11/23 08:44:55;;;;;;;8.10;6.30;;;;;;;-1.79;61.02;100554.30;108190;1253;70101;-70
2023/11/23 08:47:23;;;;;;;7.50;5.50;;;;;;;-1.68;61.09;100547.08;108248;1253;61317;-69
2023/11/23 08:49:51;;;;;;;8.60;5.00;;;;;;;-1.59;60.47;100535.45;108156;1251;59439;-68
2023/11/23 08:52:20;;;;;;;8.50;5.90;;;;;;;-1.58;59.96;100524.61;108256;1251;74820;-69
2023/11/23 08:54:47;;;;;;;10.50;6.70;;;;;;;-1.59;59.64;100520.55;108259;1251;72738;-68
2023/11/23 08:57:15;;;;;;;10.00;5.90;;;;;;;-1.66;59.31;100515.41;108291;1253;70711;-71
2023/11/23 08:59:43;;;;;;;10.50;6.30;;;;;;;-1.73;59.53;100510.69;108177;1251;61129;-69
2023/11/23 09:02:11;;;;;;;8.90;6.30;;;;;;;-1.85;59.15;100503.65;108143;1251;61140;-70
2023/11/23 09:04:47;;;;;;;8.10;5.80;;;;;;;-1.92;59.59;100491.91;108231;1251;73026;-68
2023/11/23 09:07:17;;;;;;;8.00;5.20;;;;;;;-1.91;60.00;100490.16;108292;1251;71445;-69
2023/11/23 09:09:46;;;;;;;9.70;5.90;;;;;;;-1.89;59.88;100483.83;108236;1251;71322;-69
2023/11/23 09:12:14;;;;;;;9.60;5.80;;;;;;;-1.87;59.87;100470.08;108271;1253;61241;-69
2023/11/23 09:14:42;;;;;;;7.50;5.10;;;;;;;-1.82;60.05;100464.96;108188;1257;60319;-69
2023/11/23 09:17:16;;;;;;;8.90;5.90;;;;;;;-1.80;59.68;100457.74;108106;1253;74805;-70
2023/11/23 09:19:48;;;;;;;7.30;5.40;;;;;;;-1.81;59.60;100448.20;108200;1251;73162;-70
2023/11/23 09:22:15;;;;;;;8.10;5.50;;;;;;;-1.78;59.88;100443.67;108189;1253;71184;-69
2023/11/23 09:24:43;;;;;;;10.70;5.70;;;;;;;-1.70;59.81;100448.38;108194;1253;61283;-69
2023/11/23 09:27:11;;;;;;;9.90;6.00;;;;;;;-1.64;59.96;100441.89;108179;1251;61946;-69
2023/11/23 09:29:38;;;;;;;9.20;5.70;;;;;;;-1.83;60.32;100426.99;108257;1251;73343;-69
2023/11/23 09:32:07;;;;;;;8.60;5.40;;;;;;;-1.93;60.67;100418.57;108275;1251;73201;-68
2023/11/23 09:46:16;;;;;;;7.80;5.90;;;;;;;-1.59;59.11;100420.02;105784;1283;613408;-68
2023/11/23 09:48:46;;;;;;;7.50;5.70;;;;;;;-1.46;58.92;100396.94;107060;1266;149161;-69
2023/11/23 09:51:14;;;;;;;8.00;5.60;;;;;;;-1.48;58.54;100379.38;107368;1266;59626;-70
2023/11/23 09:53:46;;;;;;;8.20;5.70;;;;;;;-1.53;58.27;100363.97;107260;1266;74509;-69
2023/11/23 09:56:14;;;;;;;7.60;5.40;;;;;;;-1.57;58.38;100336.52;107442;1266;72634;-69
2023/11/23 09:58:42;;;;;;;8.10;5.70;;;;;;;-1.60;58.22;100321.13;107305;1266;71438;-70
2023/11/23 10:01:10;;;;;;;7.50;5.60;;;;;;;-1.62;58.07;100304.82;107269;1266;59283;-68
2023/11/23 10:03:38;;;;;;;8.90;6.10;;;;;;;-1.69;58.06;100283.73;107289;1265;62277;-70
2023/11/23 10:06:06;;;;;;;9.00;6.20;;;;;;;-1.74;58.16;100278.02;107370;1266;74463;-70
2023/11/23 10:08:37;;;;;;;8.40;6.00;;;;;;;-1.78;58.31;100263.54;107311;1265;74173;-68
2023/11/23 10:11:06;;;;;;;10.40;6.60;;;;;;;-1.83;58.54;100257.05;107374;1264;71414;-70
2023/11/23 10:13:34;;;;;;;8.90;6.20;;;;;;;-1.83;58.65;100244.36;107439;1265;61875;-71
2023/11/23 10:16:04;;;;;;;8.80;6.10;;;;;;;-1.80;58.79;100214.44;107298;1265;59973;-69
2023/11/23 10:18:38;;;;;;;8.70;6.10;;;;;;;-1.84;58.71;100214.55;107388;1265;72025;-70
2023/11/23 10:21:07;;;;;;;7.40;5.70;;;;;;;-1.94;58.74;100212.17;107349;1265;71692;-68
2023/11/23 10:23:35;;;;;;;10.00;6.20;;;;;;;-1.95;59.06;100219.00;107809;1257;72824;-68
2023/11/23 10:26:02;;;;;;;9.10;6.00;;;;;;;-1.92;59.01;100222.65;107764;1256;59505;-70
2023/11/23 10:28:31;;;;;;;8.00;5.90;;;;;;;-1.92;58.75;100220.00;107825;1257;61021;-70
2023/11/23 10:31:02;;;;;;;9.60;5.80;;;;;;;-1.94;58.79;100217.09;107841;1257;73472;-70
2023/11/23 10:33:36;;;;;;;9.70;6.40;;;;;;;-1.94;58.82;100208.52;107825;1256;72987;-68
2023/11/23 10:36:11;;;;;;;8.00;5.30;;;;;;;-1.93;58.97;100203.69;107815;1258;72672;-69
2023/11/23 10:38:40;;;;;;;8.30;5.80;;;;;;;-1.88;59.12;100178.53;107842;1258;60065;-70
2023/11/23 10:41:13;;;;;;;7.40;5.50;;;;;;;-1.93;59.27;100158.50;107887;1258;60016;-70
2023/11/23 10:43:42;;;;;;;9.30;5.50;;;;;;;-1.98;60.66;100163.89;107627;1258;75281;-69
2023/11/23 10:46:11;;;;;;;9.80;6.40;;;;;;;-2.04;60.89;100155.07;108141;1259;72934;-70
2023/11/23 10:48:39;;;;;;;11.00;6.20;;;;;;;-2.11;60.59;100144.65;107746;1257;71682;-70
2023/11/23 10:51:07;;;;;;;10.20;6.00;;;;;;;-2.12;60.79;100129.23;107564;1257;60955;-70
2023/11/23 10:53:35;;;;;;;8.50;5.70;;;;;;;-2.12;60.46;100125.54;107776;1257;59714;-70
2023/11/23 10:56:23;;;;;;;7.40;5.30;;;;;;;-2.12;60.37;100114.58;107766;1257;73065;-70
2023/11/23 10:58:52;;;;;;;8.40;5.70;;;;;;;-2.11;60.20;100112.94;107760;1257;72767;-70
2023/11/23 11:01:21;;;;;;;8.50;5.60;;;;;;;-2.08;60.30;100100.93;107748;1257;72737;-71
2023/11/23 11:03:49;;;;;;;8.00;5.20;;;;;;;-2.07;60.21;100097.81;107726;1257;60235;-70
2023/11/23 11:06:20;;;;;;;7.60;5.50;;;;;;;-2.07;60.14;100091.92;108033;1262;62253;-71
2023/11/23 11:08:48;;;;;;;7.80;5.20;;;;;;;-2.05;60.16;100087.44;107778;1257;73053;-69
2023/11/23 11:11:20;;;;;;;8.30;4.90;;;;;;;-2.06;60.08;100092.22;107774;1257;72994;-69
2023/11/23 11:13:48;;;;;;;8.00;5.30;;;;;;;-2.09;60.51;100088.61;107797;1258;72672;-69
2023/11/23 11:16:17;;;;;;;8.60;6.10;;;;;;;-2.07;60.84;100068.52;107691;1257;60045;-70
2023/11/23 11:18:52;;;;;;;9.50;6.10;;;;;;;-2.03;60.81;100060.98;107789;1257;60183;-70
2023/11/23 11:21:20;;;;;;;10.30;6.00;;;;;;;-2.04;60.88;100051.54;107772;1257;75291;-70
2023/11/23 11:23:51;;;;;;;10.30;6.70;;;;;;;-2.12;61.82;100040.47;107745;1257;72158;-70
2023/11/23 11:26:21;;;;;;;9.50;7.00;;;;;;;-2.16;63.35;100024.50;107735;1258;74904;-70
2023/11/23 11:28:57;;;;;;;10.60;7.50;;;;;;;-2.15;63.69;100010.69;107703;1259;63947;-71
2023/11/23 11:31:33;;;;;;;10.40;7.40;;;;;;;-2.13;63.48;100000.73;107757;1258;60159;-71
2023/11/23 11:34:03;;;;;;;17.60;8.10;;;;;;;-2.11;62.93;99976.48;107769;1258;71796;-70
2023/11/23 11:36:33;;;;;;;12.00;8.00;;;;;;;-2.11;62.83;99982.45;107699;1257;72733;-72
2023/11/23 11:39:02;;;;;;;11.20;8.10;;;;;;;-2.05;62.90;99986.11;107725;1259;72511;-70